createdAt,value
2023-08-18T00:00:19.997Z,9.457170
2023-08-18T00:01:20.037Z,9.457272
2023-08-18T00:02:20.006Z,9.457216
2023-08-18T00:03:20.016Z,9.457249
2023-08-18T00:04:20.002Z,9.457238
2023-08-18T00:05:19.967Z,9.457298
2023-08-18T00:06:19.961Z,9.457303
2023-08-18T00:07:19.937Z,9.457251
2023-08-18T00:08:19.940Z,9.457310
2023-08-18T00:09:19.909Z,9.457251
2023-08-18T00:10:19.904Z,9.457307
2023-08-18T00:11:19.940Z,9.457270
2023-08-18T00:12:19.884Z,9.457222
2023-08-18T00:13:19.884Z,9.457254
2023-08-18T00:14:19.860Z,9.457268
2023-08-18T00:15:19.939Z,9.457258
2023-08-18T00:16:19.904Z,9.457243
2023-08-18T00:17:19.832Z,9.457232
2023-08-18T00:18:19.830Z,9.457220
2023-08-18T00:19:19.816Z,9.457254
2023-08-18T00:20:19.828Z,9.457219
2023-08-18T00:21:19.796Z,9.457228
2023-08-18T00:22:19.779Z,9.457154
2023-08-18T00:23:19.782Z,9.457304
2023-08-18T00:24:19.779Z,9.457243
2023-08-18T00:25:19.781Z,9.457154
2023-08-18T00:26:19.741Z,9.457253
2023-08-18T00:27:19.727Z,9.457276
2023-08-18T00:28:19.719Z,9.457249
2023-08-18T00:29:19.726Z,9.457148
2023-08-18T00:30:19.721Z,9.457199
2023-08-18T00:31:19.732Z,9.457302
2023-08-18T00:32:19.686Z,9.457266
2023-08-18T00:33:19.687Z,9.457248
2023-08-18T00:34:19.680Z,9.457246
2023-08-18T00:35:19.713Z,9.457209
2023-08-18T00:36:19.652Z,9.457292
2023-08-18T00:37:19.630Z,9.457316
2023-08-18T00:38:19.625Z,9.457342
2023-08-18T00:39:19.634Z,9.457260
2023-08-18T00:40:19.612Z,9.457296
2023-08-18T00:41:19.608Z,9.457289
2023-08-18T00:42:19.594Z,9.457243
2023-08-18T00:43:19.592Z,9.457271
2023-08-18T00:44:19.578Z,9.457207
2023-08-18T00:45:19.558Z,9.457287
2023-08-18T00:46:19.551Z,9.457276
2023-08-18T00:47:19.560Z,9.457197
2023-08-18T00:48:19.558Z,9.457218
2023-08-18T00:49:19.553Z,9.457245
2023-08-18T00:50:19.534Z,9.457258
2023-08-18T00:51:19.500Z,9.457307
2023-08-18T00:52:19.503Z,9.457322
2023-08-18T00:53:19.524Z,9.457318
2023-08-18T00:54:19.464Z,9.457229
2023-08-18T00:55:19.462Z,9.457249
2023-08-18T00:56:19.444Z,9.457200
2023-08-18T00:57:19.448Z,9.457300
2023-08-18T00:58:19.438Z,9.457268
2023-08-18T00:59:19.423Z,9.457255
2023-08-18T01:00:19.401Z,9.457337
2023-08-18T01:01:19.453Z,9.457232
2023-08-18T01:02:19.421Z,9.457192
2023-08-18T01:03:19.447Z,9.457223
2023-08-18T01:04:19.372Z,9.457233
2023-08-18T01:05:19.371Z,9.457185
2023-08-18T01:06:19.375Z,9.457156
2023-08-18T01:07:19.363Z,9.457212
2023-08-18T01:08:19.324Z,9.457187
2023-08-18T01:09:19.317Z,9.457265
2023-08-18T01:10:19.306Z,9.457151
2023-08-18T01:11:19.309Z,9.457334
2023-08-18T01:12:19.313Z,9.457399
2023-08-18T01:13:19.273Z,9.457343
2023-08-18T01:14:19.297Z,9.457353
2023-08-18T01:15:19.259Z,9.457415
2023-08-18T01:16:19.278Z,9.457267
2023-08-18T01:17:19.234Z,9.457236
2023-08-18T01:18:19.237Z,9.457261
2023-08-18T01:19:19.217Z,9.457224
2023-08-18T01:20:19.236Z,9.457193
2023-08-18T01:21:19.228Z,9.457227
2023-08-18T01:22:19.191Z,9.457191
2023-08-18T01:23:19.180Z,9.457231
2023-08-18T01:24:19.161Z,9.457239
2023-08-18T01:25:19.187Z,9.457240
2023-08-18T01:26:19.151Z,9.457196
2023-08-18T01:27:19.129Z,9.457239
2023-08-18T01:28:19.136Z,9.457265
2023-08-18T01:29:19.132Z,9.457259
2023-08-18T01:30:19.149Z,9.457258
2023-08-18T01:31:19.102Z,9.457243
2023-08-18T01:32:19.087Z,9.457240
2023-08-18T01:33:19.075Z,9.457242
2023-08-18T01:34:19.082Z,9.457348
2023-08-18T01:35:19.093Z,9.457346
2023-08-18T01:36:19.044Z,9.457276
2023-08-18T01:37:19.023Z,9.457257
2023-08-18T01:38:19.054Z,9.457232
2023-08-18T01:39:19.029Z,9.457244
2023-08-18T01:40:19.009Z,9.457268
2023-08-18T01:41:18.985Z,9.457292
2023-08-18T01:42:18.976Z,9.457254
2023-08-18T01:43:18.967Z,9.457206
2023-08-18T01:44:18.970Z,9.457198
2023-08-18T01:45:18.971Z,9.457186
2023-08-18T01:46:18.948Z,9.457204
2023-08-18T01:47:18.929Z,9.457269
2023-08-18T01:48:18.987Z,9.457262
2023-08-18T01:49:18.913Z,9.457232
2023-08-18T01:50:18.898Z,9.457182
2023-08-18T01:51:18.911Z,9.457197
2023-08-18T01:52:18.881Z,9.457214
2023-08-18T01:53:18.882Z,9.457240
2023-08-18T01:54:18.867Z,9.457241
2023-08-18T01:55:18.865Z,9.457232
2023-08-18T01:56:18.835Z,9.457224
2023-08-18T01:57:18.855Z,9.457280
2023-08-18T01:58:18.834Z,9.457249
2023-08-18T01:59:18.817Z,9.457232
2023-08-18T02:00:21.071Z,9.457233
2023-08-18T02:01:19.811Z,9.457263
2023-08-18T02:02:18.809Z,9.457243
2023-08-18T02:03:18.861Z,9.457098
2023-08-18T02:04:18.819Z,9.457166
2023-08-18T02:05:18.772Z,9.457151
2023-08-18T02:06:18.743Z,9.457190
2023-08-18T02:07:18.765Z,9.457252
2023-08-18T02:08:18.776Z,9.457217
2023-08-18T02:09:18.711Z,9.457319
2023-08-18T02:10:18.710Z,9.457289
2023-08-18T02:11:18.689Z,9.457250
2023-08-18T02:12:18.695Z,9.457253
2023-08-18T02:13:18.694Z,9.457268
2023-08-18T02:14:18.652Z,9.457266
2023-08-18T02:15:18.645Z,9.457246
2023-08-18T02:16:18.783Z,9.457167
2023-08-18T02:17:18.649Z,9.457204
2023-08-18T02:18:18.616Z,9.457248
2023-08-18T02:19:18.636Z,9.457338
2023-08-18T02:20:18.613Z,9.457256
2023-08-18T02:21:18.600Z,9.457221
2023-08-18T02:22:18.573Z,9.457235
2023-08-18T02:23:18.568Z,9.457183
2023-08-18T02:24:18.563Z,9.457232
2023-08-18T02:25:18.548Z,9.457264
2023-08-18T02:26:18.557Z,9.457197
2023-08-18T02:27:18.561Z,9.457197
2023-08-18T02:28:18.516Z,9.457218
2023-08-18T02:29:18.509Z,9.457273
2023-08-18T02:30:18.509Z,9.457234
2023-08-18T02:31:18.550Z,9.457194
2023-08-18T02:32:18.474Z,9.457190
2023-08-18T02:33:18.502Z,9.457305
2023-08-18T02:34:18.463Z,9.457177
2023-08-18T02:35:18.470Z,9.457179
2023-08-18T02:36:18.436Z,9.457224
2023-08-18T02:37:18.434Z,9.457226
2023-08-18T02:38:18.409Z,9.457264
2023-08-18T02:39:18.403Z,9.457225
2023-08-18T02:40:18.419Z,9.457158
2023-08-18T02:41:18.388Z,9.457255
2023-08-18T02:42:18.380Z,9.457228
2023-08-18T02:43:18.359Z,9.457221
2023-08-18T02:44:18.376Z,9.457231
2023-08-18T02:45:18.368Z,9.457293
2023-08-18T02:46:18.348Z,9.457260
2023-08-18T02:47:19.318Z,9.457205
2023-08-18T02:48:18.312Z,9.457259
2023-08-18T02:49:18.319Z,9.457229
2023-08-18T02:50:18.293Z,9.457112
2023-08-18T02:51:18.293Z,9.457256
2023-08-18T02:52:18.283Z,9.457342
2023-08-18T02:53:18.261Z,9.457246
2023-08-18T02:54:18.266Z,9.457250
2023-08-18T02:55:18.259Z,9.457333
2023-08-18T02:56:18.234Z,9.457245
2023-08-18T02:57:18.221Z,9.457244
2023-08-18T02:58:18.220Z,9.457243
2023-08-18T02:59:18.220Z,9.457277
2023-08-18T03:00:18.195Z,9.457316
2023-08-18T03:01:18.193Z,9.457276
2023-08-18T03:02:18.165Z,9.457290
2023-08-18T03:03:18.262Z,9.457262
2023-08-18T03:04:18.152Z,9.457169
2023-08-18T03:05:18.150Z,9.457195
2023-08-18T03:06:18.136Z,9.457221
2023-08-18T03:07:18.132Z,9.457211
2023-08-18T03:08:18.124Z,9.457149
2023-08-18T03:09:18.096Z,9.457076
2023-08-18T03:10:18.097Z,9.457204
2023-08-18T03:11:18.092Z,9.457188
2023-08-18T03:12:18.094Z,9.457157
2023-08-18T03:13:18.122Z,9.457154
2023-08-18T03:14:18.044Z,9.457230
2023-08-18T03:15:18.032Z,9.457278
2023-08-18T03:16:18.075Z,9.457272
2023-08-18T03:17:18.046Z,9.457143
2023-08-18T03:18:18.006Z,9.457120
2023-08-18T03:19:18.009Z,9.457072
2023-08-18T03:20:17.984Z,9.457101
2023-08-18T03:21:17.986Z,9.457005
2023-08-18T03:22:17.971Z,9.456984
2023-08-18T03:23:17.941Z,9.457151
2023-08-18T03:24:17.941Z,9.457151
2023-08-18T03:25:17.941Z,9.457168
2023-08-18T03:26:17.938Z,9.457113
2023-08-18T03:27:17.936Z,9.457127
2023-08-18T03:28:17.892Z,9.456986
2023-08-18T03:29:17.892Z,9.456961
2023-08-18T03:30:17.932Z,9.457192
2023-08-18T03:31:17.898Z,9.457201
2023-08-18T03:32:17.855Z,9.457008
2023-08-18T03:33:17.914Z,9.457129
2023-08-18T03:34:17.842Z,9.457105
2023-08-18T03:35:17.845Z,9.457082
2023-08-18T03:36:17.834Z,9.457152
2023-08-18T03:37:17.806Z,9.457306
2023-08-18T03:38:17.793Z,9.457380
2023-08-18T03:39:17.786Z,9.457219
2023-08-18T03:40:17.805Z,9.456852
2023-08-18T03:41:17.764Z,9.456485
2023-08-18T03:42:17.752Z,9.456132
2023-08-18T03:43:17.742Z,9.456742
2023-08-18T03:44:17.760Z,9.456791
2023-08-18T03:45:17.752Z,9.457098
2023-08-18T03:46:17.742Z,9.457211
2023-08-18T03:47:17.709Z,9.457218
2023-08-18T03:48:17.692Z,9.457294
2023-08-18T03:49:17.716Z,9.457182
2023-08-18T03:50:17.694Z,9.457152
2023-08-18T03:51:17.663Z,9.457206
2023-08-18T03:52:17.654Z,9.457260
2023-08-18T03:53:17.640Z,9.457228
2023-08-18T03:54:17.664Z,9.457371
2023-08-18T03:55:17.641Z,9.457262
2023-08-18T03:56:17.609Z,9.457350
2023-08-18T03:57:17.594Z,9.457196
2023-08-18T03:58:17.595Z,9.457305
2023-08-18T03:59:17.596Z,9.457208
2023-08-18T04:00:17.567Z,9.457165
2023-08-18T04:01:17.755Z,9.457171
2023-08-18T04:02:17.554Z,9.457225
2023-08-18T04:03:17.654Z,9.457240
2023-08-18T04:04:17.546Z,9.457178
2023-08-18T04:05:17.518Z,9.457189
2023-08-18T04:06:17.508Z,9.457254
2023-08-18T04:07:17.497Z,9.457215
2023-08-18T04:08:17.522Z,9.457255
2023-08-18T04:09:17.488Z,9.457168
2023-08-18T04:10:17.475Z,9.457284
2023-08-18T04:11:17.457Z,9.457249
2023-08-18T04:12:17.446Z,9.457201
2023-08-18T04:13:17.469Z,9.457188
2023-08-18T04:14:17.434Z,9.457189
2023-08-18T04:15:17.474Z,9.457244
2023-08-18T04:16:17.456Z,9.457088
2023-08-18T04:17:17.414Z,9.457252
2023-08-18T04:18:17.403Z,9.457265
2023-08-18T04:19:17.380Z,9.457374
2023-08-18T04:20:17.374Z,9.457175
2023-08-18T04:21:17.370Z,9.457223
2023-08-18T04:22:17.364Z,9.457108
2023-08-18T04:23:17.336Z,9.457171
2023-08-18T04:24:17.323Z,9.457282
2023-08-18T04:25:17.330Z,9.457211
2023-08-18T04:26:17.307Z,9.457253
2023-08-18T04:27:17.318Z,9.457237
2023-08-18T04:28:17.299Z,9.457251
2023-08-18T04:29:17.277Z,9.457156
2023-08-18T04:30:17.262Z,9.457165
2023-08-18T04:31:17.394Z,9.456944
2023-08-18T04:32:17.263Z,9.457156
2023-08-18T04:33:17.231Z,9.457223
2023-08-18T04:34:17.228Z,9.457196
2023-08-18T04:35:17.216Z,9.457093
2023-08-18T04:36:17.233Z,9.457164
2023-08-18T04:37:17.194Z,9.457059
2023-08-18T04:38:17.177Z,9.457105
2023-08-18T04:39:17.171Z,9.456991
2023-08-18T04:40:17.166Z,9.456822
2023-08-18T04:41:17.155Z,9.457005
2023-08-18T04:42:18.144Z,9.457115
2023-08-18T04:43:17.137Z,9.457002
2023-08-18T04:44:17.118Z,9.457060
2023-08-18T04:45:17.137Z,9.457136
2023-08-18T04:46:17.127Z,9.457227
2023-08-18T04:47:17.106Z,9.457156
2023-08-18T04:48:17.096Z,9.457232
2023-08-18T04:49:17.093Z,9.457205
2023-08-18T04:50:17.072Z,9.457244
2023-08-18T04:51:17.056Z,9.457254
2023-08-18T04:52:17.037Z,9.457196
2023-08-18T04:53:17.045Z,9.457197
2023-08-18T04:54:17.012Z,9.457243
2023-08-18T04:55:17.021Z,9.457238
2023-08-18T04:56:17.015Z,9.457260
2023-08-18T04:57:17.155Z,9.457232
2023-08-18T04:58:16.999Z,9.457172
2023-08-18T04:59:17.991Z,9.457217
2023-08-18T05:00:16.970Z,9.457157
2023-08-18T05:01:16.975Z,9.457116
2023-08-18T05:02:16.943Z,9.457126
2023-08-18T05:03:17.026Z,9.457169
2023-08-18T05:04:16.931Z,9.457245
2023-08-18T05:05:16.900Z,9.457171
2023-08-18T05:06:16.897Z,9.457172
2023-08-18T05:07:16.891Z,9.457252
2023-08-18T05:08:16.868Z,9.457176
2023-08-18T05:09:17.898Z,9.457163
2023-08-18T05:10:16.859Z,9.457331
2023-08-18T05:11:16.847Z,9.457353
2023-08-18T05:12:16.834Z,9.457288
2023-08-18T05:13:16.842Z,9.457341
2023-08-18T05:14:16.841Z,9.457111
2023-08-18T05:15:16.803Z,9.457299
2023-08-18T05:16:16.827Z,9.457288
2023-08-18T05:17:16.784Z,9.457290
2023-08-18T05:18:16.785Z,9.457303
2023-08-18T05:19:16.776Z,9.457114
2023-08-18T05:20:16.814Z,9.456968
2023-08-18T05:21:16.743Z,9.456906
2023-08-18T05:22:16.719Z,9.456923
2023-08-18T05:23:17.768Z,9.457202
2023-08-18T05:24:16.705Z,9.457296
2023-08-18T05:25:16.711Z,9.457370
2023-08-18T05:26:16.693Z,9.457197
2023-08-18T05:27:16.695Z,9.457208
2023-08-18T05:28:16.872Z,9.457236
2023-08-18T05:29:16.655Z,9.457234
2023-08-18T05:30:16.645Z,9.457206
2023-08-18T05:31:16.717Z,9.457248
2023-08-18T05:32:16.637Z,9.457357
2023-08-18T05:33:16.614Z,9.457292
2023-08-18T05:34:16.617Z,9.457273
2023-08-18T05:35:16.590Z,9.457223
2023-08-18T05:36:16.587Z,9.457202
2023-08-18T05:37:16.591Z,9.457189
2023-08-18T05:38:16.593Z,9.457121
2023-08-18T05:39:16.554Z,9.457121
2023-08-18T05:40:16.547Z,9.457220
2023-08-18T05:41:16.706Z,9.457148
2023-08-18T05:42:16.545Z,9.457244
2023-08-18T05:43:16.507Z,9.457234
2023-08-18T05:44:16.492Z,9.457129
2023-08-18T05:45:16.493Z,9.457299
2023-08-18T05:46:16.592Z,9.457252
2023-08-18T05:47:16.468Z,9.457206
2023-08-18T05:48:16.460Z,9.457244
2023-08-18T05:49:16.449Z,9.457144
2023-08-18T05:50:16.441Z,9.457131
2023-08-18T05:51:16.459Z,9.457245
2023-08-18T05:52:16.413Z,9.457233
2023-08-18T05:53:16.412Z,9.457140
2023-08-18T05:54:16.400Z,9.457144
2023-08-18T05:55:16.429Z,9.457082
2023-08-18T05:56:16.397Z,9.457087
2023-08-18T05:57:16.375Z,9.457160
2023-08-18T05:58:16.379Z,9.457226
2023-08-18T05:59:16.382Z,9.457202
2023-08-18T06:00:16.371Z,9.457123
2023-08-18T06:01:16.363Z,9.457142
2023-08-18T06:02:16.321Z,9.457145
2023-08-18T06:03:16.320Z,9.457128
2023-08-18T06:04:16.381Z,9.457101
2023-08-18T06:05:16.301Z,9.457147
2023-08-18T06:06:16.288Z,9.457151
2023-08-18T06:07:16.263Z,9.457172
2023-08-18T06:08:16.255Z,9.457208
2023-08-18T06:09:16.274Z,9.457298
2023-08-18T06:10:16.266Z,9.457271
2023-08-18T06:11:16.234Z,9.457277
2023-08-18T06:12:16.247Z,9.457264
2023-08-18T06:13:16.213Z,9.457144
2023-08-18T06:14:16.215Z,9.457130
2023-08-18T06:15:16.189Z,9.457256
2023-08-18T06:16:16.232Z,9.457260
2023-08-18T06:17:16.166Z,9.457277
2023-08-18T06:18:16.179Z,9.457230
2023-08-18T06:19:16.172Z,9.457284
2023-08-18T06:20:16.163Z,9.457215
2023-08-18T06:21:16.125Z,9.457307
2023-08-18T06:22:16.123Z,9.457244
2023-08-18T06:23:16.193Z,9.457224
2023-08-18T06:24:16.097Z,9.457174
2023-08-18T06:25:16.086Z,9.457176
2023-08-18T06:26:16.076Z,9.457122
2023-08-18T06:27:16.068Z,9.457074
2023-08-18T06:28:16.079Z,9.457167
2023-08-18T06:29:16.049Z,9.457158
2023-08-18T06:30:16.061Z,9.457172
2023-08-18T06:31:16.049Z,9.457201
2023-08-18T06:32:16.057Z,9.457178
2023-08-18T06:33:16.458Z,9.457250
2023-08-18T06:34:16.014Z,9.457183
2023-08-18T06:35:15.998Z,9.457166
2023-08-18T06:36:15.983Z,9.457178
2023-08-18T06:37:16.015Z,9.457200
2023-08-18T06:38:15.961Z,9.457267
2023-08-18T06:39:15.956Z,9.457211
2023-08-18T06:40:15.940Z,9.457221
2023-08-18T06:41:15.942Z,9.457260
2023-08-18T06:42:15.949Z,9.457330
2023-08-18T06:43:15.920Z,9.457211
2023-08-18T06:44:15.909Z,9.457211
2023-08-18T06:45:15.896Z,9.457188
2023-08-18T06:46:15.946Z,9.457266
2023-08-18T06:47:15.886Z,9.457242
2023-08-18T06:48:15.870Z,9.457241
2023-08-18T06:49:15.919Z,9.457237
2023-08-18T06:50:15.851Z,9.457259
2023-08-18T06:51:15.843Z,9.457253
2023-08-18T06:52:15.823Z,9.457175
2023-08-18T06:53:15.808Z,9.457232
2023-08-18T06:54:15.808Z,9.457164
2023-08-18T06:55:20.961Z,9.457180
2023-08-18T06:56:16.798Z,9.457203
2023-08-18T06:57:15.768Z,9.457136
2023-08-18T06:58:15.821Z,9.457149
2023-08-18T06:59:15.756Z,9.457144
2023-08-18T07:00:15.765Z,9.457103
2023-08-18T07:01:15.813Z,9.457068
2023-08-18T07:02:15.766Z,9.457133
2023-08-18T07:03:15.888Z,9.457211
2023-08-18T07:04:15.702Z,9.457202
2023-08-18T07:05:15.712Z,9.457195
2023-08-18T07:06:15.714Z,9.457108
2023-08-18T07:07:15.686Z,9.457165
2023-08-18T07:08:15.660Z,9.457203
2023-08-18T07:09:15.657Z,9.457198
2023-08-18T07:10:15.663Z,9.457218
2023-08-18T07:11:15.633Z,9.457170
2023-08-18T07:12:16.628Z,9.457220
2023-08-18T07:13:15.612Z,9.457224
2023-08-18T07:14:15.620Z,9.457286
2023-08-18T07:15:15.602Z,9.457170
2023-08-18T07:16:15.718Z,9.457116
2023-08-18T07:17:15.581Z,9.457139
2023-08-18T07:18:15.562Z,9.457063
2023-08-18T07:19:15.590Z,9.457125
2023-08-18T07:20:15.580Z,9.457094
2023-08-18T07:21:15.538Z,9.457103
2023-08-18T07:22:15.515Z,9.456917
2023-08-18T07:23:15.508Z,9.457105
2023-08-18T07:24:15.516Z,9.457180
2023-08-18T07:25:15.499Z,9.457362
2023-08-18T07:26:15.472Z,9.457340
2023-08-18T07:27:15.480Z,9.457232
2023-08-18T07:28:15.469Z,9.457211
2023-08-18T07:29:15.462Z,9.457223
2023-08-18T07:30:15.431Z,9.457202
2023-08-18T07:31:15.508Z,9.457254
2023-08-18T07:32:15.442Z,9.457234
2023-08-18T07:33:15.444Z,9.457303
2023-08-18T07:34:15.395Z,9.457205
2023-08-18T07:35:15.378Z,9.457253
2023-08-18T07:36:15.372Z,9.457187
2023-08-18T07:37:15.518Z,9.457192
2023-08-18T07:38:15.381Z,9.457179
2023-08-18T07:39:15.341Z,9.457149
2023-08-18T07:40:15.326Z,9.457194
2023-08-18T07:41:15.319Z,9.457222
2023-08-18T07:42:15.324Z,9.457291
2023-08-18T07:43:15.317Z,9.457236
2023-08-18T07:44:15.277Z,9.457207
2023-08-18T07:45:15.276Z,9.457221
2023-08-18T07:46:15.410Z,9.457325
2023-08-18T07:47:15.305Z,9.457241
2023-08-18T07:48:15.235Z,9.457227
2023-08-18T07:49:15.270Z,9.457216
2023-08-18T07:50:15.219Z,9.457183
2023-08-18T07:51:15.201Z,9.457170
2023-08-18T07:52:15.217Z,9.457167
2023-08-18T07:53:16.411Z,9.457179
2023-08-18T07:54:15.181Z,9.457248
2023-08-18T07:55:15.171Z,9.457186
2023-08-18T07:56:15.181Z,9.457276
2023-08-18T07:57:15.173Z,9.457257
2023-08-18T07:58:16.600Z,9.457207
2023-08-18T07:59:15.154Z,9.457185
2023-08-18T08:00:15.124Z,9.457236
2023-08-18T08:01:15.162Z,9.457341
2023-08-18T08:02:30.950Z,9.457376
2023-08-18T08:03:17.209Z,9.457288
2023-08-18T08:04:16.115Z,9.457189
2023-08-18T08:05:15.087Z,9.457169
2023-08-18T08:06:15.075Z,9.457139
2023-08-18T08:07:15.043Z,9.457232
2023-08-18T08:08:15.041Z,9.457280
2023-08-18T08:09:15.054Z,9.457170
2023-08-18T08:10:15.028Z,9.457246
2023-08-18T08:11:15.018Z,9.457257
2023-08-18T08:12:15.006Z,9.457232
2023-08-18T08:13:14.984Z,9.457092
2023-08-18T08:14:14.984Z,9.457021
2023-08-18T08:15:15.006Z,9.457187
2023-08-18T08:16:14.983Z,9.457180
2023-08-18T08:17:14.956Z,9.457155
2023-08-18T08:18:15.018Z,9.457227
2023-08-18T08:19:18.290Z,9.457219
2023-08-18T08:20:15.955Z,9.457180
2023-08-18T08:21:14.913Z,9.457093
2023-08-18T08:22:14.898Z,9.457101
2023-08-18T08:23:14.882Z,9.457043
2023-08-18T08:24:14.900Z,9.457071
2023-08-18T08:25:14.884Z,9.457057
2023-08-18T08:26:14.855Z,9.457098
2023-08-18T08:27:14.846Z,9.457099
2023-08-18T08:28:14.840Z,9.457088
2023-08-18T08:29:14.840Z,9.457155
2023-08-18T08:30:30.180Z,9.457180
2023-08-18T08:31:16.847Z,9.457179
2023-08-18T08:32:14.796Z,9.457297
2023-08-18T08:33:17.085Z,9.457223
2023-08-18T08:34:15.817Z,9.457219
2023-08-18T08:35:14.766Z,9.457279
2023-08-18T08:36:14.757Z,9.457153
2023-08-18T08:37:14.747Z,9.457216
2023-08-18T08:38:14.750Z,9.457274
2023-08-18T08:39:14.737Z,9.457200
2023-08-18T08:40:14.728Z,9.457234
2023-08-18T08:41:14.703Z,9.457305
2023-08-18T08:42:14.719Z,9.457332
2023-08-18T08:43:14.697Z,9.457390
2023-08-18T08:44:14.716Z,9.457315
2023-08-18T08:45:14.668Z,9.457265
2023-08-18T08:46:15.783Z,9.457288
2023-08-18T08:47:17.594Z,9.457287
2023-08-18T08:48:20.092Z,9.457245
2023-08-18T08:49:15.621Z,9.457201
2023-08-18T08:50:14.612Z,9.457231
2023-08-18T08:51:14.613Z,9.457252
2023-08-18T08:52:14.628Z,9.457261
2023-08-18T08:53:14.590Z,9.457202
2023-08-18T08:54:14.585Z,9.457217
2023-08-18T08:55:14.577Z,9.457221
2023-08-18T08:56:14.571Z,9.457227
2023-08-18T08:57:14.571Z,9.457219
2023-08-18T08:58:15.017Z,9.457232
2023-08-18T08:59:17.821Z,9.457264
2023-08-18T09:00:15.671Z,9.457307
2023-08-18T09:01:14.559Z,9.457310
2023-08-18T09:02:14.607Z,9.457236
2023-08-18T09:03:14.558Z,9.457289
2023-08-18T09:04:14.514Z,9.457296
2023-08-18T09:05:14.466Z,9.457296
2023-08-18T09:06:15.493Z,9.457228
2023-08-18T09:07:14.456Z,9.457319
2023-08-18T09:08:14.449Z,9.457339
2023-08-18T09:09:14.427Z,9.457271
2023-08-18T09:10:15.431Z,9.457256
2023-08-18T09:11:15.424Z,9.457192
2023-08-18T09:12:14.400Z,9.457273
2023-08-18T09:13:14.397Z,9.457293
2023-08-18T09:14:14.382Z,9.457304
2023-08-18T09:15:14.382Z,9.457304
2023-08-18T09:16:14.408Z,9.457245
2023-08-18T09:17:14.362Z,9.457230
2023-08-18T09:18:14.382Z,9.457285
2023-08-18T09:19:14.363Z,9.457246
2023-08-18T09:20:14.364Z,9.457236
2023-08-18T09:21:14.307Z,9.457290
2023-08-18T09:22:14.309Z,9.457281
2023-08-18T09:23:14.296Z,9.457257
2023-08-18T09:24:14.311Z,9.457217
2023-08-18T09:25:14.318Z,9.457238
2023-08-18T09:26:14.277Z,9.457211
2023-08-18T09:27:14.256Z,9.457191
2023-08-18T09:28:16.323Z,9.457238
2023-08-18T09:29:15.252Z,9.457197
2023-08-18T09:30:14.251Z,9.457211
2023-08-18T09:31:14.264Z,9.457140
2023-08-18T09:32:14.215Z,9.457163
2023-08-18T09:33:14.256Z,9.457271
2023-08-18T09:34:14.199Z,9.457285
2023-08-18T09:35:14.170Z,9.457274
2023-08-18T09:36:14.229Z,9.457149
2023-08-18T09:37:14.144Z,9.457095
2023-08-18T09:38:14.190Z,9.457185
2023-08-18T09:39:14.146Z,9.457215
2023-08-18T09:40:14.118Z,9.457067
2023-08-18T09:41:14.122Z,9.457238
2023-08-18T09:42:14.133Z,9.457213
2023-08-18T09:43:14.109Z,9.457274
2023-08-18T09:44:14.091Z,9.457150
2023-08-18T09:45:14.069Z,9.457163
2023-08-18T09:46:14.110Z,9.457156
2023-08-18T09:47:14.048Z,9.457170
2023-08-18T09:48:14.085Z,9.457273
2023-08-18T09:49:14.028Z,9.457230
2023-08-18T09:50:14.025Z,9.457331
2023-08-18T09:51:14.033Z,9.457235
2023-08-18T09:52:14.042Z,9.457359
2023-08-18T09:53:14.012Z,9.457347
2023-08-18T09:54:13.968Z,9.457183
2023-08-18T09:55:14.974Z,9.457170
2023-08-18T09:56:13.963Z,9.457213
2023-08-18T09:57:13.975Z,9.457167
2023-08-18T09:58:13.957Z,9.457168
2023-08-18T09:59:13.976Z,9.457287
2023-08-18T10:00:13.930Z,9.457118
2023-08-18T10:01:13.914Z,9.457224
2023-08-18T10:02:13.934Z,9.457316
2023-08-18T10:03:13.935Z,9.457198
2023-08-18T10:04:13.902Z,9.457189
2023-08-18T10:05:13.865Z,9.457210
2023-08-18T10:06:13.940Z,9.457080
2023-08-18T10:07:13.876Z,9.457290
2023-08-18T10:08:13.842Z,9.457216
2023-08-18T10:09:13.831Z,9.457294
2023-08-18T10:10:13.833Z,9.457260
2023-08-18T10:11:13.860Z,9.457216
2023-08-18T10:12:13.819Z,9.457360
2023-08-18T10:13:13.804Z,9.457460
2023-08-18T10:14:13.782Z,9.457327
2023-08-18T10:15:13.772Z,9.457230
2023-08-18T10:16:13.818Z,9.457201
2023-08-18T10:17:13.765Z,9.457215
2023-08-18T10:18:13.747Z,9.457204
2023-08-18T10:19:13.746Z,9.457181
2023-08-18T10:20:13.732Z,9.457232
2023-08-18T10:21:13.758Z,9.457179
2023-08-18T10:22:13.705Z,9.457232
2023-08-18T10:23:13.694Z,9.457232
2023-08-18T10:24:13.684Z,9.457299
2023-08-18T10:25:13.699Z,9.457380
2023-08-18T10:26:13.662Z,9.457164
2023-08-18T10:27:13.689Z,9.457146
2023-08-18T10:28:13.643Z,9.457251
2023-08-18T10:29:22.578Z,9.457253
2023-08-18T10:30:15.652Z,9.457281
2023-08-18T10:31:13.679Z,9.457335
2023-08-18T10:32:13.664Z,9.457258
2023-08-18T10:33:13.635Z,9.457354
2023-08-18T10:34:13.600Z,9.457472
2023-08-18T10:35:13.702Z,9.457248
2023-08-18T10:36:13.587Z,9.457199
2023-08-18T10:37:13.565Z,9.457223
2023-08-18T10:38:13.549Z,9.457253
2023-08-18T10:39:13.562Z,9.457241
2023-08-18T10:40:13.526Z,9.457155
2023-08-18T10:41:13.523Z,9.457220
2023-08-18T10:42:13.508Z,9.457209
2023-08-18T10:43:13.591Z,9.457251
2023-08-18T10:44:13.511Z,9.457214
2023-08-18T10:45:13.482Z,9.457120
2023-08-18T10:46:13.622Z,9.457198
2023-08-18T10:47:13.463Z,9.457282
2023-08-18T10:48:15.146Z,9.457330
2023-08-18T10:49:14.446Z,9.457338
2023-08-18T10:50:13.435Z,9.457188
2023-08-18T10:51:13.442Z,9.457257
2023-08-18T10:52:13.422Z,9.457130
2023-08-18T10:53:13.426Z,9.457199
2023-08-18T10:54:13.398Z,9.457284
2023-08-18T10:55:13.397Z,9.457237
2023-08-18T10:56:13.378Z,9.457221
2023-08-18T10:57:13.403Z,9.457327
2023-08-18T10:58:13.377Z,9.457371
2023-08-18T10:59:13.356Z,9.457401
2023-08-18T11:00:13.349Z,9.457262
2023-08-18T11:01:13.350Z,9.457163
2023-08-18T11:02:13.335Z,9.457238
2023-08-18T11:03:13.362Z,9.457279
2023-08-18T11:04:13.321Z,9.457195
2023-08-18T11:05:13.292Z,9.457299
2023-08-18T11:06:13.274Z,9.457204
2023-08-18T11:07:13.295Z,9.457113
2023-08-18T11:08:13.265Z,9.457202
2023-08-18T11:09:13.249Z,9.457170
2023-08-18T11:10:13.245Z,9.457134
2023-08-18T11:11:13.252Z,9.457145
2023-08-18T11:12:13.228Z,9.457205
2023-08-18T11:13:15.492Z,9.457243
2023-08-18T11:14:13.201Z,9.457230
2023-08-18T11:15:13.192Z,9.457224
2023-08-18T11:16:13.259Z,9.457153
2023-08-18T11:17:13.161Z,9.457264
2023-08-18T11:18:13.153Z,9.457203
2023-08-18T11:19:13.202Z,9.457371
2023-08-18T11:20:13.141Z,9.457248
2023-08-18T11:21:13.129Z,9.457213
2023-08-18T11:22:13.119Z,9.457192
2023-08-18T11:23:13.099Z,9.457178
2023-08-18T11:24:13.085Z,9.457210
2023-08-18T11:25:13.378Z,9.457214
2023-08-18T11:26:13.082Z,9.457322
2023-08-18T11:27:13.099Z,9.457338
2023-08-18T11:28:13.038Z,9.457291
2023-08-18T11:29:13.052Z,9.457303
2023-08-18T11:30:13.039Z,9.457247
2023-08-18T11:31:13.040Z,9.457294
2023-08-18T11:32:13.002Z,9.457246
2023-08-18T11:33:13.073Z,9.457373
2023-08-18T11:34:12.991Z,9.457278
2023-08-18T11:35:13.001Z,9.457202
2023-08-18T11:36:12.996Z,9.457224
2023-08-18T11:37:12.968Z,9.457293
2023-08-18T11:38:12.948Z,9.457335
2023-08-18T11:39:12.954Z,9.457253
2023-08-18T11:40:12.945Z,9.457152
2023-08-18T11:41:12.927Z,9.457156
2023-08-18T11:42:12.957Z,9.457247
2023-08-18T11:43:12.898Z,9.457207
2023-08-18T11:44:12.947Z,9.457244